Connelly Springs, North Carolina
Current Conditions -  °F | °C
As of 4:53 AM on Friday 24 Oct 2014 (Local Time) from KHKY Reporting Station
Clear Clear  
Wind Chill: 43°   Ceiling: Unl
Heat Index: 43°   Visibility: 10mi
Dew Point: 39°   Wind: 3mph
Humidity: 86%   Direction: 270°W
Pressure: 30.04"   Gusts: NA
Location:  35.6588°N, 81.5286°W
Report Text: KHKY 240853Z AUTO 27003KT 10SM CLR 06/04 A3004 RMK AO2 SLP160 T00610039 58002
Loading
Personal Weather Stations






























Interactive Weather Map
Tropical Storm Tracking
New forecast layout! Learn more

10-Day Weather Forecast

Advertisements
Track Severe Weather on mobile